sensor_id;sensor_type;location;lat;lon;timestamp;P1;durP1;ratioP1;P2;durP2;ratioP2
52015;SDS011;38032;53.326;6.472;2024-01-15T00:00:39;7.25;;;1.48;;
52015;SDS011;38032;53.326;6.472;2024-01-15T00:03:05;7.03;;;1.65;;
52015;SDS011;38032;53.326;6.472;2024-01-15T00:05:31;6.75;;;1.75;;
52015;SDS011;38032;53.326;6.472;2024-01-15T00:07:57;6.63;;;2.05;;
52015;SDS011;38032;53.326;6.472;2024-01-15T00:10:23;8.73;;;1.80;;
52015;SDS011;38032;53.326;6.472;2024-01-15T00:12:49;7.97;;;2.28;;
52015;SDS011;38032;53.326;6.472;2024-01-15T00:15:14;6.78;;;1.67;;
52015;SDS011;38032;53.326;6.472;2024-01-15T00:17:40;8.20;;;2.08;;
52015;SDS011;38032;53.326;6.472;2024-01-15T00:20:06;8.95;;;1.63;;
52015;SDS011;38032;53.326;6.472;2024-01-15T00:22:32;7.55;;;1.73;;
52015;SDS011;38032;53.326;6.472;2024-01-15T00:25:01;8.63;;;1.92;;
52015;SDS011;38032;53.326;6.472;2024-01-15T00:27:27;7.40;;;1.92;;
52015;SDS011;38032;53.326;6.472;2024-01-15T00:29:53;12.30;;;2.20;;
52015;SDS011;38032;53.326;6.472;2024-01-15T00:32:19;12.10;;;2.70;;
52015;SDS011;38032;53.326;6.472;2024-01-15T00:34:46;7.28;;;2.25;;
52015;SDS011;38032;53.326;6.472;2024-01-15T00:37:12;9.23;;;1.80;;
52015;SDS011;38032;53.326;6.472;2024-01-15T00:39:37;11.65;;;2.70;;
52015;SDS011;38032;53.326;6.472;2024-01-15T00:42:03;10.13;;;2.10;;
52015;SDS011;38032;53.326;6.472;2024-01-15T00:44:29;16.25;;;3.05;;
52015;SDS011;38032;53.326;6.472;2024-01-15T00:46:55;15.43;;;3.13;;
52015;SDS011;38032;53.326;6.472;2024-01-15T00:49:21;16.10;;;2.95;;
52015;SDS011;38032;53.326;6.472;2024-01-15T00:51:47;9.65;;;2.13;;
52015;SDS011;38032;53.326;6.472;2024-01-15T00:54:13;9.15;;;2.08;;
52015;SDS011;38032;53.326;6.472;2024-01-15T00:56:39;11.57;;;2.38;;
52015;SDS011;38032;53.326;6.472;2024-01-15T00:59:04;10.55;;;2.60;;
52015;SDS011;38032;53.326;6.472;2024-01-15T01:01:31;9.60;;;1.90;;
52015;SDS011;38032;53.326;6.472;2024-01-15T01:03:57;8.85;;;1.70;;
52015;SDS011;38032;53.326;6.472;2024-01-15T01:06:22;8.55;;;1.67;;
52015;SDS011;38032;53.326;6.472;2024-01-15T01:08:48;7.82;;;1.83;;
52015;SDS011;38032;53.326;6.472;2024-01-15T01:11:15;6.70;;;1.63;;
52015;SDS011;38032;53.326;6.472;2024-01-15T01:13:41;8.90;;;1.92;;
52015;SDS011;38032;53.326;6.472;2024-01-15T01:16:07;10.07;;;2.20;;
52015;SDS011;38032;53.326;6.472;2024-01-15T01:18:33;9.82;;;2.15;;
52015;SDS011;38032;53.326;6.472;2024-01-15T01:20:59;12.43;;;2.95;;
52015;SDS011;38032;53.326;6.472;2024-01-15T01:23:25;13.90;;;2.85;;
52015;SDS011;38032;53.326;6.472;2024-01-15T01:25:51;15.65;;;3.00;;
52015;SDS011;38032;53.326;6.472;2024-01-15T01:28:17;9.43;;;2.80;;
52015;SDS011;38032;53.326;6.472;2024-01-15T01:30:43;12.20;;;2.40;;
52015;SDS011;38032;53.326;6.472;2024-01-15T01:33:09;15.10;;;3.22;;
52015;SDS011;38032;53.326;6.472;2024-01-15T01:35:35;9.95;;;2.72;;
52015;SDS011;38032;53.326;6.472;2024-01-15T01:38:01;13.85;;;3.00;;
52015;SDS011;38032;53.326;6.472;2024-01-15T01:40:27;12.63;;;2.67;;
52015;SDS011;38032;53.326;6.472;2024-01-15T01:42:52;14.45;;;3.47;;
52015;SDS011;38032;53.326;6.472;2024-01-15T01:45:18;15.50;;;2.70;;
52015;SDS011;38032;53.326;6.472;2024-01-15T01:47:44;16.60;;;3.25;;
52015;SDS011;38032;53.326;6.472;2024-01-15T01:50:10;13.75;;;3.03;;
52015;SDS011;38032;53.326;6.472;2024-01-15T01:52:37;15.82;;;2.67;;
52015;SDS011;38032;53.326;6.472;2024-01-15T01:55:03;13.20;;;3.08;;
52015;SDS011;38032;53.326;6.472;2024-01-15T01:57:30;15.95;;;3.10;;
52015;SDS011;38032;53.326;6.472;2024-01-15T01:59:59;8.35;;;1.83;;
52015;SDS011;38032;53.326;6.472;2024-01-15T02:02:26;7.55;;;1.85;;
52015;SDS011;38032;53.326;6.472;2024-01-15T02:04:52;7.95;;;2.30;;
52015;SDS011;38032;53.326;6.472;2024-01-15T02:07:18;9.48;;;2.38;;
52015;SDS011;38032;53.326;6.472;2024-01-15T02:09:44;11.82;;;2.88;;
52015;SDS011;38032;53.326;6.472;2024-01-15T02:12:10;19.40;;;3.20;;
52015;SDS011;38032;53.326;6.472;2024-01-15T02:14:36;19.98;;;3.15;;
52015;SDS011;38032;53.326;6.472;2024-01-15T02:17:02;15.70;;;2.95;;
52015;SDS011;38032;53.326;6.472;2024-01-15T02:19:28;13.05;;;2.50;;
52015;SDS011;38032;53.326;6.472;2024-01-15T02:21:55;5.40;;;1.67;;
52015;SDS011;38032;53.326;6.472;2024-01-15T02:24:21;7.75;;;2.55;;
52015;SDS011;38032;53.326;6.472;2024-01-15T02:26:47;8.95;;;1.80;;
52015;SDS011;38032;53.326;6.472;2024-01-15T02:29:13;8.23;;;1.80;;
52015;SDS011;38032;53.326;6.472;2024-01-15T02:31:40;6.53;;;1.55;;
52015;SDS011;38032;53.326;6.472;2024-01-15T02:34:05;5.80;;;1.30;;
52015;SDS011;38032;53.326;6.472;2024-01-15T02:36:31;5.15;;;1.60;;
52015;SDS011;38032;53.326;6.472;2024-01-15T02:38:57;5.70;;;1.63;;
52015;SDS011;38032;53.326;6.472;2024-01-15T02:41:23;3.50;;;1.30;;
52015;SDS011;38032;53.326;6.472;2024-01-15T02:43:49;3.40;;;1.13;;
52015;SDS011;38032;53.326;6.472;2024-01-15T02:46:15;3.78;;;1.10;;
52015;SDS011;38032;53.326;6.472;2024-01-15T02:48:41;5.35;;;1.33;;
52015;SDS011;38032;53.326;6.472;2024-01-15T02:51:07;8.23;;;1.85;;
52015;SDS011;38032;53.326;6.472;2024-01-15T02:53:33;5.03;;;1.58;;
52015;SDS011;38032;53.326;6.472;2024-01-15T02:55:58;8.63;;;2.15;;
52015;SDS011;38032;53.326;6.472;2024-01-15T02:58:24;6.80;;;1.90;;
52015;SDS011;38032;53.326;6.472;2024-01-15T03:00:50;9.30;;;1.95;;
52015;SDS011;38032;53.326;6.472;2024-01-15T03:03:16;13.35;;;2.75;;
52015;SDS011;38032;53.326;6.472;2024-01-15T03:05:42;8.70;;;2.33;;
52015;SDS011;38032;53.326;6.472;2024-01-15T03:08:08;10.18;;;2.20;;
52015;SDS011;38032;53.326;6.472;2024-01-15T03:10:33;9.07;;;2.30;;
52015;SDS011;38032;53.326;6.472;2024-01-15T03:12:59;6.80;;;2.10;;
52015;SDS011;38032;53.326;6.472;2024-01-15T03:15:25;14.55;;;2.75;;
52015;SDS011;38032;53.326;6.472;2024-01-15T03:17:51;12.98;;;2.83;;
52015;SDS011;38032;53.326;6.472;2024-01-15T03:20:16;11.80;;;2.42;;
52015;SDS011;38032;53.326;6.472;2024-01-15T03:22:42;17.67;;;2.80;;
52015;SDS011;38032;53.326;6.472;2024-01-15T03:25:08;10.65;;;2.55;;
52015;SDS011;38032;53.326;6.472;2024-01-15T03:27:34;16.63;;;2.80;;
52015;SDS011;38032;53.326;6.472;2024-01-15T03:30:00;17.85;;;3.45;;
52015;SDS011;38032;53.326;6.472;2024-01-15T03:32:27;15.95;;;3.85;;
52015;SDS011;38032;53.326;6.472;2024-01-15T03:34:53;18.98;;;3.17;;
52015;SDS011;38032;53.326;6.472;2024-01-15T03:37:18;8.75;;;2.20;;
52015;SDS011;38032;53.326;6.472;2024-01-15T03:39:44;8.95;;;2.42;;
52015;SDS011;38032;53.326;6.472;2024-01-15T03:42:11;13.25;;;2.47;;
52015;SDS011;38032;53.326;6.472;2024-01-15T03:44:36;13.75;;;2.55;;
52015;SDS011;38032;53.326;6.472;2024-01-15T03:47:02;9.65;;;2.40;;
52015;SDS011;38032;53.326;6.472;2024-01-15T03:49:29;11.20;;;2.28;;
52015;SDS011;38032;53.326;6.472;2024-01-15T03:51:55;8.77;;;2.03;;
52015;SDS011;38032;53.326;6.472;2024-01-15T03:54:21;10.73;;;2.22;;
52015;SDS011;38032;53.326;6.472;2024-01-15T03:56:46;11.43;;;2.22;;
52015;SDS011;38032;53.326;6.472;2024-01-15T03:59:12;10.52;;;2.25;;
52015;SDS011;38032;53.326;6.472;2024-01-15T04:01:38;11.13;;;2.38;;
52015;SDS011;38032;53.326;6.472;2024-01-15T04:04:04;12.38;;;2.15;;
52015;SDS011;38032;53.326;6.472;2024-01-15T04:06:30;8.88;;;2.22;;
52015;SDS011;38032;53.326;6.472;2024-01-15T04:08:55;14.52;;;2.97;;
52015;SDS011;38032;53.326;6.472;2024-01-15T04:11:21;10.63;;;2.40;;
52015;SDS011;38032;53.326;6.472;2024-01-15T04:13:47;9.20;;;2.15;;
52015;SDS011;38032;53.326;6.472;2024-01-15T04:16:13;12.25;;;2.45;;
52015;SDS011;38032;53.326;6.472;2024-01-15T04:18:39;10.75;;;3.00;;
52015;SDS011;38032;53.326;6.472;2024-01-15T04:21:05;12.10;;;2.45;;
52015;SDS011;38032;53.326;6.472;2024-01-15T04:23:32;11.07;;;2.33;;
52015;SDS011;38032;53.326;6.472;2024-01-15T04:25:58;9.75;;;2.30;;
52015;SDS011;38032;53.326;6.472;2024-01-15T04:28:24;12.38;;;2.25;;
52015;SDS011;38032;53.326;6.472;2024-01-15T04:30:49;10.07;;;2.65;;
52015;SDS011;38032;53.326;6.472;2024-01-15T04:33:15;8.23;;;2.25;;
52015;SDS011;38032;53.326;6.472;2024-01-15T04:35:41;10.77;;;2.50;;
52015;SDS011;38032;53.326;6.472;2024-01-15T04:38:07;11.02;;;2.17;;
52015;SDS011;38032;53.326;6.472;2024-01-15T04:40:33;9.68;;;2.53;;
52015;SDS011;38032;53.326;6.472;2024-01-15T04:42:58;6.45;;;1.95;;
52015;SDS011;38032;53.326;6.472;2024-01-15T04:45:24;9.82;;;1.83;;
52015;SDS011;38032;53.326;6.472;2024-01-15T04:47:54;5.70;;;2.25;;
52015;SDS011;38032;53.326;6.472;2024-01-15T04:50:22;6.38;;;1.90;;
52015;SDS011;38032;53.326;6.472;2024-01-15T04:52:48;6.65;;;1.80;;
52015;SDS011;38032;53.326;6.472;2024-01-15T04:55:14;7.32;;;1.77;;
52015;SDS011;38032;53.326;6.472;2024-01-15T04:57:40;7.95;;;2.30;;
52015;SDS011;38032;53.326;6.472;2024-01-15T05:00:06;9.75;;;2.17;;
52015;SDS011;38032;53.326;6.472;2024-01-15T05:02:32;8.52;;;2.08;;
52015;SDS011;38032;53.326;6.472;2024-01-15T05:04:58;16.77;;;3.20;;
52015;SDS011;38032;53.326;6.472;2024-01-15T05:07:24;13.13;;;3.33;;
52015;SDS011;38032;53.326;6.472;2024-01-15T05:09:50;16.13;;;2.92;;
52015;SDS011;38032;53.326;6.472;2024-01-15T05:12:16;14.75;;;2.40;;
52015;SDS011;38032;53.326;6.472;2024-01-15T05:14:41;8.88;;;2.10;;
52015;SDS011;38032;53.326;6.472;2024-01-15T05:17:07;17.45;;;3.03;;
52015;SDS011;38032;53.326;6.472;2024-01-15T05:19:33;10.32;;;2.03;;
52015;SDS011;38032;53.326;6.472;2024-01-15T05:21:59;13.88;;;2.45;;
52015;SDS011;38032;53.326;6.472;2024-01-15T05:24:25;10.57;;;2.40;;
52015;SDS011;38032;53.326;6.472;2024-01-15T05:26:51;12.68;;;2.22;;
52015;SDS011;38032;53.326;6.472;2024-01-15T05:29:17;11.00;;;2.38;;
52015;SDS011;38032;53.326;6.472;2024-01-15T05:31:43;16.17;;;2.92;;
52015;SDS011;38032;53.326;6.472;2024-01-15T05:34:09;12.77;;;2.80;;
52015;SDS011;38032;53.326;6.472;2024-01-15T05:36:35;13.50;;;2.50;;
52015;SDS011;38032;53.326;6.472;2024-01-15T05:39:01;13.43;;;2.25;;
52015;SDS011;38032;53.326;6.472;2024-01-15T05:41:28;5.65;;;2.08;;
52015;SDS011;38032;53.326;6.472;2024-01-15T05:43:53;11.52;;;2.60;;
52015;SDS011;38032;53.326;6.472;2024-01-15T05:46:19;11.25;;;2.80;;
52015;SDS011;38032;53.326;6.472;2024-01-15T05:48:45;13.48;;;2.55;;
52015;SDS011;38032;53.326;6.472;2024-01-15T05:51:12;7.28;;;2.10;;
52015;SDS011;38032;53.326;6.472;2024-01-15T05:53:37;11.88;;;2.35;;
52015;SDS011;38032;53.326;6.472;2024-01-15T05:56:05;10.93;;;2.35;;
52015;SDS011;38032;53.326;6.472;2024-01-15T05:58:31;10.48;;;2.53;;
52015;SDS011;38032;53.326;6.472;2024-01-15T06:00:57;9.75;;;2.28;;
52015;SDS011;38032;53.326;6.472;2024-01-15T06:03:23;14.95;;;2.88;;
52015;SDS011;38032;53.326;6.472;2024-01-15T06:05:49;10.18;;;2.25;;
52015;SDS011;38032;53.326;6.472;2024-01-15T06:08:14;10.73;;;2.78;;
52015;SDS011;38032;53.326;6.472;2024-01-15T06:10:40;12.73;;;3.08;;
52015;SDS011;38032;53.326;6.472;2024-01-15T06:13:06;14.98;;;2.90;;
52015;SDS011;38032;53.326;6.472;2024-01-15T06:15:32;14.20;;;3.60;;
52015;SDS011;38032;53.326;6.472;2024-01-15T06:17:58;13.02;;;2.60;;
52015;SDS011;38032;53.326;6.472;2024-01-15T06:20:23;19.95;;;2.92;;
52015;SDS011;38032;53.326;6.472;2024-01-15T06:22:49;12.05;;;2.75;;
52015;SDS011;38032;53.326;6.472;2024-01-15T06:25:15;16.17;;;3.10;;
52015;SDS011;38032;53.326;6.472;2024-01-15T06:27:41;12.55;;;2.63;;
52015;SDS011;38032;53.326;6.472;2024-01-15T06:30:07;11.80;;;2.60;;
52015;SDS011;38032;53.326;6.472;2024-01-15T06:32:33;9.30;;;1.77;;
52015;SDS011;38032;53.326;6.472;2024-01-15T06:34:59;8.55;;;1.75;;
52015;SDS011;38032;53.326;6.472;2024-01-15T06:37:25;8.48;;;1.88;;
52015;SDS011;38032;53.326;6.472;2024-01-15T06:39:50;8.07;;;2.05;;
52015;SDS011;38032;53.326;6.472;2024-01-15T06:42:16;8.93;;;1.70;;
52015;SDS011;38032;53.326;6.472;2024-01-15T06:44:42;6.85;;;1.55;;
52015;SDS011;38032;53.326;6.472;2024-01-15T06:47:08;5.18;;;1.55;;
52015;SDS011;38032;53.326;6.472;2024-01-15T06:49:34;7.57;;;2.00;;
52015;SDS011;38032;53.326;6.472;2024-01-15T06:52:00;10.25;;;2.10;;
52015;SDS011;38032;53.326;6.472;2024-01-15T06:54:25;13.65;;;2.50;;
52015;SDS011;38032;53.326;6.472;2024-01-15T06:56:51;11.80;;;2.63;;
52015;SDS011;38032;53.326;6.472;2024-01-15T06:59:17;9.25;;;2.15;;
52015;SDS011;38032;53.326;6.472;2024-01-15T07:01:43;6.03;;;2.03;;
52015;SDS011;38032;53.326;6.472;2024-01-15T07:04:09;6.93;;;1.60;;
52015;SDS011;38032;53.326;6.472;2024-01-15T07:06:35;7.35;;;1.88;;
52015;SDS011;38032;53.326;6.472;2024-01-15T07:09:01;8.48;;;1.85;;
52015;SDS011;38032;53.326;6.472;2024-01-15T07:11:26;6.20;;;1.70;;
52015;SDS011;38032;53.326;6.472;2024-01-15T07:13:52;7.68;;;1.60;;
52015;SDS011;38032;53.326;6.472;2024-01-15T07:16:18;3.53;;;1.30;;
52015;SDS011;38032;53.326;6.472;2024-01-15T07:18:44;7.60;;;1.85;;
52015;SDS011;38032;53.326;6.472;2024-01-15T07:21:10;6.03;;;1.65;;
52015;SDS011;38032;53.326;6.472;2024-01-15T07:23:35;5.45;;;1.58;;
52015;SDS011;38032;53.326;6.472;2024-01-15T07:26:01;6.35;;;1.50;;
52015;SDS011;38032;53.326;6.472;2024-01-15T07:28:28;4.38;;;1.40;;
52015;SDS011;38032;53.326;6.472;2024-01-15T07:30:55;6.07;;;1.52;;
52015;SDS011;38032;53.326;6.472;2024-01-15T07:33:21;5.10;;;1.63;;
52015;SDS011;38032;53.326;6.472;2024-01-15T07:35:46;5.28;;;1.33;;
52015;SDS011;38032;53.326;6.472;2024-01-15T07:38:12;8.25;;;1.50;;
52015;SDS011;38032;53.326;6.472;2024-01-15T07:40:38;5.32;;;1.50;;
52015;SDS011;38032;53.326;6.472;2024-01-15T07:43:04;9.52;;;1.50;;
52015;SDS011;38032;53.326;6.472;2024-01-15T07:45:30;6.47;;;1.70;;
52015;SDS011;38032;53.326;6.472;2024-01-15T07:47:55;8.23;;;1.80;;
52015;SDS011;38032;53.326;6.472;2024-01-15T07:50:21;5.28;;;1.63;;
52015;SDS011;38032;53.326;6.472;2024-01-15T07:52:47;6.85;;;1.63;;
52015;SDS011;38032;53.326;6.472;2024-01-15T07:55:13;5.25;;;1.70;;
52015;SDS011;38032;53.326;6.472;2024-01-15T07:57:39;4.72;;;1.60;;
52015;SDS011;38032;53.326;6.472;2024-01-15T08:00:05;6.78;;;2.03;;
52015;SDS011;38032;53.326;6.472;2024-01-15T08:02:32;6.45;;;1.77;;
52015;SDS011;38032;53.326;6.472;2024-01-15T08:04:58;4.82;;;1.73;;
52015;SDS011;38032;53.326;6.472;2024-01-15T08:07:24;10.60;;;2.20;;
52015;SDS011;38032;53.326;6.472;2024-01-15T08:09:51;9.57;;;1.98;;
52015;SDS011;38032;53.326;6.472;2024-01-15T08:12:17;13.18;;;2.15;;
52015;SDS011;38032;53.326;6.472;2024-01-15T08:14:43;12.32;;;2.33;;
52015;SDS011;38032;53.326;6.472;2024-01-15T08:17:09;8.88;;;2.35;;
52015;SDS011;38032;53.326;6.472;2024-01-15T08:19:35;13.07;;;2.40;;
52015;SDS011;38032;53.326;6.472;2024-01-15T08:22:00;9.98;;;2.40;;
52015;SDS011;38032;53.326;6.472;2024-01-15T08:24:26;10.40;;;2.35;;
52015;SDS011;38032;53.326;6.472;2024-01-15T08:26:53;13.82;;;2.17;;
52015;SDS011;38032;53.326;6.472;2024-01-15T08:29:21;10.15;;;1.90;;
52015;SDS011;38032;53.326;6.472;2024-01-15T08:31:47;6.13;;;1.95;;
52015;SDS011;38032;53.326;6.472;2024-01-15T08:34:13;8.10;;;2.13;;
52015;SDS011;38032;53.326;6.472;2024-01-15T08:36:39;7.95;;;2.35;;
52015;SDS011;38032;53.326;6.472;2024-01-15T08:39:05;10.27;;;1.85;;
52015;SDS011;38032;53.326;6.472;2024-01-15T08:41:32;8.02;;;1.70;;
52015;SDS011;38032;53.326;6.472;2024-01-15T08:43:58;6.10;;;1.92;;
52015;SDS011;38032;53.326;6.472;2024-01-15T08:46:24;5.10;;;1.40;;
52015;SDS011;38032;53.326;6.472;2024-01-15T08:48:50;4.13;;;1.30;;
52015;SDS011;38032;53.326;6.472;2024-01-15T08:51:16;3.50;;;1.30;;
52015;SDS011;38032;53.326;6.472;2024-01-15T08:53:43;3.78;;;1.40;;
52015;SDS011;38032;53.326;6.472;2024-01-15T08:56:09;6.78;;;1.67;;
52015;SDS011;38032;53.326;6.472;2024-01-15T08:58:36;7.25;;;1.80;;
52015;SDS011;38032;53.326;6.472;2024-01-15T09:01:01;10.25;;;2.10;;
52015;SDS011;38032;53.326;6.472;2024-01-15T09:03:27;12.30;;;2.15;;
52015;SDS011;38032;53.326;6.472;2024-01-15T09:05:53;9.48;;;2.30;;
52015;SDS011;38032;53.326;6.472;2024-01-15T09:08:19;10.52;;;2.97;;
52015;SDS011;38032;53.326;6.472;2024-01-15T09:10:45;9.52;;;2.10;;
52015;SDS011;38032;53.326;6.472;2024-01-15T09:13:11;10.98;;;2.10;;
52015;SDS011;38032;53.326;6.472;2024-01-15T09:15:37;9.40;;;2.25;;
52015;SDS011;38032;53.326;6.472;2024-01-15T09:18:04;9.90;;;2.30;;
52015;SDS011;38032;53.326;6.472;2024-01-15T09:20:30;6.22;;;2.20;;
52015;SDS011;38032;53.326;6.472;2024-01-15T09:22:56;8.32;;;2.45;;
52015;SDS011;38032;53.326;6.472;2024-01-15T09:25:22;12.68;;;2.60;;
52015;SDS011;38032;53.326;6.472;2024-01-15T09:27:48;10.30;;;1.95;;
52015;SDS011;38032;53.326;6.472;2024-01-15T09:30:13;12.25;;;2.35;;
52015;SDS011;38032;53.326;6.472;2024-01-15T09:32:40;8.05;;;1.90;;
52015;SDS011;38032;53.326;6.472;2024-01-15T09:35:06;7.25;;;1.73;;
52015;SDS011;38032;53.326;6.472;2024-01-15T09:37:32;5.90;;;1.70;;
52015;SDS011;38032;53.326;6.472;2024-01-15T09:39:59;11.38;;;2.05;;
52015;SDS011;38032;53.326;6.472;2024-01-15T09:42:25;9.60;;;2.38;;
52015;SDS011;38032;53.326;6.472;2024-01-15T09:44:52;7.25;;;1.65;;
52015;SDS011;38032;53.326;6.472;2024-01-15T09:47:18;12.73;;;2.10;;
52015;SDS011;38032;53.326;6.472;2024-01-15T09:49:45;6.57;;;2.05;;
52015;SDS011;38032;53.326;6.472;2024-01-15T09:52:11;4.00;;;1.52;;
52015;SDS011;38032;53.326;6.472;2024-01-15T09:54:37;12.63;;;2.03;;
52015;SDS011;38032;53.326;6.472;2024-01-15T09:57:04;5.10;;;1.38;;
52015;SDS011;38032;53.326;6.472;2024-01-15T09:59:30;4.38;;;1.20;;
52015;SDS011;38032;53.326;6.472;2024-01-15T10:01:57;4.50;;;1.23;;
52015;SDS011;38032;53.326;6.472;2024-01-15T10:04:25;6.63;;;1.50;;
52015;SDS011;38032;53.326;6.472;2024-01-15T10:06:51;4.78;;;1.17;;
52015;SDS011;38032;53.326;6.472;2024-01-15T10:09:18;2.95;;;1.30;;
52015;SDS011;38032;53.326;6.472;2024-01-15T10:11:44;3.95;;;1.10;;
52015;SDS011;38032;53.326;6.472;2024-01-15T10:14:11;2.35;;;1.17;;
52015;SDS011;38032;53.326;6.472;2024-01-15T10:16:39;3.97;;;1.10;;
52015;SDS011;38032;53.326;6.472;2024-01-15T10:19:06;1.38;;;0.90;;
52015;SDS011;38032;53.326;6.472;2024-01-15T10:21:32;6.00;;;1.23;;
52015;SDS011;38032;53.326;6.472;2024-01-15T10:24:02;6.13;;;1.20;;
52015;SDS011;38032;53.326;6.472;2024-01-15T10:26:29;8.77;;;1.65;;
52015;SDS011;38032;53.326;6.472;2024-01-15T10:28:56;4.20;;;1.20;;
52015;SDS011;38032;53.326;6.472;2024-01-15T10:31:23;8.27;;;1.52;;
52015;SDS011;38032;53.326;6.472;2024-01-15T10:33:50;5.65;;;1.50;;
52015;SDS011;38032;53.326;6.472;2024-01-15T10:36:16;6.32;;;1.60;;
52015;SDS011;38032;53.326;6.472;2024-01-15T10:38:43;6.15;;;1.55;;
52015;SDS011;38032;53.326;6.472;2024-01-15T10:41:09;3.22;;;1.30;;
52015;SDS011;38032;53.326;6.472;2024-01-15T10:43:36;4.20;;;1.10;;
52015;SDS011;38032;53.326;6.472;2024-01-15T10:46:02;5.03;;;1.30;;
52015;SDS011;38032;53.326;6.472;2024-01-15T10:48:28;2.60;;;1.10;;
52015;SDS011;38032;53.326;6.472;2024-01-15T10:50:56;3.25;;;1.30;;
52015;SDS011;38032;53.326;6.472;2024-01-15T10:53:24;4.22;;;1.20;;
52015;SDS011;38032;53.326;6.472;2024-01-15T10:55:51;5.50;;;1.42;;
52015;SDS011;38032;53.326;6.472;2024-01-15T10:58:18;6.60;;;1.48;;
52015;SDS011;38032;53.326;6.472;2024-01-15T11:00:45;7.70;;;1.85;;
52015;SDS011;38032;53.326;6.472;2024-01-15T11:03:11;6.95;;;1.85;;
52015;SDS011;38032;53.326;6.472;2024-01-15T11:05:38;3.22;;;1.17;;
52015;SDS011;38032;53.326;6.472;2024-01-15T11:08:06;3.45;;;1.48;;
52015;SDS011;38032;53.326;6.472;2024-01-15T11:13:09;5.18;;;1.20;;
52015;SDS011;38032;53.326;6.472;2024-01-15T11:15:54;1.92;;;0.95;;
52015;SDS011;38032;53.326;6.472;2024-01-15T11:18:29;1.38;;;0.88;;
52015;SDS011;38032;53.326;6.472;2024-01-15T11:21:23;2.25;;;0.90;;
52015;SDS011;38032;53.326;6.472;2024-01-15T11:23:52;3.17;;;1.00;;
52015;SDS011;38032;53.326;6.472;2024-01-15T11:26:29;3.65;;;1.00;;
52015;SDS011;38032;53.326;6.472;2024-01-15T11:28:57;3.63;;;1.20;;
52015;SDS011;38032;53.326;6.472;2024-01-15T11:31:27;2.13;;;1.10;;
52015;SDS011;38032;53.326;6.472;2024-01-15T11:33:55;2.65;;;1.00;;
52015;SDS011;38032;53.326;6.472;2024-01-15T11:36:21;5.40;;;1.52;;
52015;SDS011;38032;53.326;6.472;2024-01-15T11:39:39;4.22;;;1.40;;
52015;SDS011;38032;53.326;6.472;2024-01-15T11:42:08;3.60;;;1.30;;
52015;SDS011;38032;53.326;6.472;2024-01-15T11:44:34;3.47;;;1.08;;
52015;SDS011;38032;53.326;6.472;2024-01-15T11:52:21;5.72;;;1.58;;
52015;SDS011;38032;53.326;6.472;2024-01-15T11:57:35;7.85;;;1.70;;
52015;SDS011;38032;53.326;6.472;2024-01-15T12:00:09;8.73;;;2.00;;
52015;SDS011;38032;53.326;6.472;2024-01-15T12:02:36;4.53;;;1.50;;
52015;SDS011;38032;53.326;6.472;2024-01-15T12:05:03;4.20;;;1.40;;
52015;SDS011;38032;53.326;6.472;2024-01-15T12:07:29;9.15;;;1.42;;
52015;SDS011;38032;53.326;6.472;2024-01-15T12:09:55;9.95;;;1.98;;
52015;SDS011;38032;53.326;6.472;2024-01-15T12:12:27;6.15;;;1.60;;
52015;SDS011;38032;53.326;6.472;2024-01-15T12:15:04;5.50;;;1.58;;
52015;SDS011;38032;53.326;6.472;2024-01-15T12:17:30;3.80;;;1.30;;
52015;SDS011;38032;53.326;6.472;2024-01-15T12:19:56;7.25;;;1.40;;
52015;SDS011;38032;53.326;6.472;2024-01-15T12:22:22;4.97;;;1.42;;
52015;SDS011;38032;53.326;6.472;2024-01-15T12:24:48;5.47;;;1.27;;
52015;SDS011;38032;53.326;6.472;2024-01-15T12:27:14;7.55;;;1.50;;
52015;SDS011;38032;53.326;6.472;2024-01-15T12:29:40;4.90;;;1.48;;
52015;SDS011;38032;53.326;6.472;2024-01-15T12:32:06;6.00;;;1.52;;
52015;SDS011;38032;53.326;6.472;2024-01-15T12:34:33;6.43;;;1.48;;
52015;SDS011;38032;53.326;6.472;2024-01-15T12:36:59;4.85;;;1.60;;
52015;SDS011;38032;53.326;6.472;2024-01-15T12:39:24;5.40;;;1.63;;
52015;SDS011;38032;53.326;6.472;2024-01-15T12:41:51;9.38;;;2.20;;
52015;SDS011;38032;53.326;6.472;2024-01-15T12:44:16;9.45;;;1.90;;
52015;SDS011;38032;53.326;6.472;2024-01-15T12:46:42;9.57;;;2.33;;
52015;SDS011;38032;53.326;6.472;2024-01-15T12:49:08;10.07;;;2.00;;
52015;SDS011;38032;53.326;6.472;2024-01-15T12:51:34;10.38;;;1.80;;
52015;SDS011;38032;53.326;6.472;2024-01-15T12:54:00;10.88;;;1.92;;
52015;SDS011;38032;53.326;6.472;2024-01-15T12:56:26;9.63;;;1.80;;
52015;SDS011;38032;53.326;6.472;2024-01-15T12:58:52;10.52;;;2.30;;
52015;SDS011;38032;53.326;6.472;2024-01-15T13:01:18;12.27;;;1.98;;
52015;SDS011;38032;53.326;6.472;2024-01-15T13:03:43;8.82;;;2.13;;
52015;SDS011;38032;53.326;6.472;2024-01-15T13:06:09;8.65;;;2.08;;
52015;SDS011;38032;53.326;6.472;2024-01-15T13:08:35;8.85;;;1.85;;
52015;SDS011;38032;53.326;6.472;2024-01-15T13:11:01;11.75;;;2.25;;
52015;SDS011;38032;53.326;6.472;2024-01-15T13:13:27;13.40;;;2.38;;
52015;SDS011;38032;53.326;6.472;2024-01-15T13:15:52;9.35;;;2.03;;
52015;SDS011;38032;53.326;6.472;2024-01-15T13:18:19;7.18;;;2.03;;
52015;SDS011;38032;53.326;6.472;2024-01-15T13:20:45;6.32;;;1.70;;
52015;SDS011;38032;53.326;6.472;2024-01-15T13:23:11;6.38;;;1.35;;
52015;SDS011;38032;53.326;6.472;2024-01-15T13:25:37;5.75;;;1.33;;
52015;SDS011;38032;53.326;6.472;2024-01-15T13:28:04;3.40;;;1.25;;
52015;SDS011;38032;53.326;6.472;2024-01-15T13:30:30;5.07;;;1.73;;
52015;SDS011;38032;53.326;6.472;2024-01-15T13:32:56;6.03;;;2.08;;
52015;SDS011;38032;53.326;6.472;2024-01-15T13:35:24;7.88;;;2.20;;
52015;SDS011;38032;53.326;6.472;2024-01-15T13:37:49;7.10;;;2.05;;
52015;SDS011;38032;53.326;6.472;2024-01-15T13:40:15;7.70;;;1.80;;
52015;SDS011;38032;53.326;6.472;2024-01-15T13:42:45;5.43;;;1.90;;
52015;SDS011;38032;53.326;6.472;2024-01-15T13:45:12;9.60;;;2.17;;
52015;SDS011;38032;53.326;6.472;2024-01-15T13:47:40;5.82;;;1.70;;
52015;SDS011;38032;53.326;6.472;2024-01-15T13:50:07;4.53;;;1.90;;
52015;SDS011;38032;53.326;6.472;2024-01-15T13:52:33;8.63;;;2.20;;
52015;SDS011;38032;53.326;6.472;2024-01-15T13:54:59;7.30;;;1.77;;
52015;SDS011;38032;53.326;6.472;2024-01-15T13:57:25;5.95;;;1.40;;
52015;SDS011;38032;53.326;6.472;2024-01-15T13:59:51;7.03;;;2.00;;
52015;SDS011;38032;53.326;6.472;2024-01-15T14:02:17;7.28;;;1.50;;
52015;SDS011;38032;53.326;6.472;2024-01-15T14:04:43;6.55;;;2.10;;
52015;SDS011;38032;53.326;6.472;2024-01-15T14:07:08;8.35;;;1.58;;
52015;SDS011;38032;53.326;6.472;2024-01-15T14:09:34;4.40;;;1.40;;
52015;SDS011;38032;53.326;6.472;2024-01-15T14:12:00;5.28;;;1.30;;
52015;SDS011;38032;53.326;6.472;2024-01-15T14:14:26;4.45;;;1.40;;
52015;SDS011;38032;53.326;6.472;2024-01-15T14:16:52;3.88;;;1.42;;
52015;SDS011;38032;53.326;6.472;2024-01-15T14:19:18;6.43;;;1.65;;
52015;SDS011;38032;53.326;6.472;2024-01-15T14:21:43;2.38;;;1.30;;
52015;SDS011;38032;53.326;6.472;2024-01-15T14:24:09;4.38;;;1.30;;
52015;SDS011;38032;53.326;6.472;2024-01-15T14:26:35;4.32;;;1.50;;
52015;SDS011;38032;53.326;6.472;2024-01-15T14:29:01;6.72;;;1.50;;
52015;SDS011;38032;53.326;6.472;2024-01-15T14:31:27;8.70;;;1.77;;
52015;SDS011;38032;53.326;6.472;2024-01-15T14:33:53;8.05;;;1.40;;
52015;SDS011;38032;53.326;6.472;2024-01-15T14:36:20;5.15;;;1.65;;
52015;SDS011;38032;53.326;6.472;2024-01-15T14:38:46;5.72;;;1.70;;
52015;SDS011;38032;53.326;6.472;2024-01-15T14:41:14;7.45;;;2.17;;
52015;SDS011;38032;53.326;6.472;2024-01-15T14:43:42;6.65;;;1.98;;
52015;SDS011;38032;53.326;6.472;2024-01-15T14:46:08;7.15;;;1.92;;
52015;SDS011;38032;53.326;6.472;2024-01-15T14:48:33;9.73;;;2.50;;